Time;durP1;ratioP1;P1;durP2;ratioP2;P2;SDS_P1;SDS_P2;PMS_P1;PMS_P2;Temp;Humidity;BMP_temperature;BMP_pressure;BME280_temperature;BME280_humidity;BME280_pressure;Samples;Min_cycle;Max_cycle;Signal;HPM_P1;HPM_P2
2022/07/14 00:01:36;;;;;;;9.98;2.70;;;;;;;;;;5000302;28;20058;-76
2022/07/14 00:04:02;;;;;;;13.73;2.58;;;;;;;;;;5004019;28;20135;-76
2022/07/14 00:06:28;;;;;;;11.27;3.30;;;;;;;;;;4987811;28;20033;-76
2022/07/14 00:08:54;;;;;;;11.07;2.10;;;;;;;;;;4990912;28;20038;-76
2022/07/14 00:11:20;;;;;;;9.80;2.28;;;;;;;;;;5003439;28;20108;-76
2022/07/14 00:13:46;;;;;;;7.38;1.67;;;;;;;;;;5006525;28;20478;-76
2022/07/14 00:16:12;;;;;;;8.27;1.65;;;;;;;;;;5002083;28;20492;-75
2022/07/14 00:18:43;;;;;;;12.27;2.55;;;;;;;;;;4987303;28;20394;-75
2022/07/14 00:21:13;;;;;;;9.63;2.20;;;;;;;;;;4985278;28;20401;-75
2022/07/14 00:23:40;;;;;;;8.05;1.77;;;;;;;;;;5003371;28;20054;-75
2022/07/14 00:26:06;;;;;;;5.53;1.58;;;;;;;;;;5001089;28;20520;-75
2022/07/14 00:28:33;;;;;;;8.80;1.95;;;;;;;;;;5004350;28;20394;-75
2022/07/14 00:31:03;;;;;;;10.25;1.60;;;;;;;;;;5005646;28;20065;-75
2022/07/14 00:33:33;;;;;;;9.65;1.92;;;;;;;;;;5004411;28;20084;-75
2022/07/14 00:35:59;;;;;;;8.32;1.52;;;;;;;;;;5004028;28;20130;-76
2022/07/14 00:38:26;;;;;;;7.93;2.00;;;;;;;;;;5002604;28;20069;-74
2022/07/14 00:40:52;;;;;;;8.00;1.60;;;;;;;;;;5003657;28;20029;-74
2022/07/14 00:43:18;;;;;;;8.38;2.00;;;;;;;;;;5002337;28;20470;-74
2022/07/14 00:45:45;;;;;;;8.95;1.92;;;;;;;;;;5002809;28;20112;-74
2022/07/14 00:48:14;;;;;;;7.93;2.38;;;;;;;;;;5003160;28;20034;-74
2022/07/14 00:50:44;;;;;;;12.70;1.95;;;;;;;;;;5005048;28;20554;-76
2022/07/14 00:53:11;;;;;;;10.82;2.00;;;;;;;;;;4998796;28;20030;-74
2022/07/14 00:55:39;;;;;;;11.27;3.08;;;;;;;;;;5005277;28;20044;-74
2022/07/14 00:58:05;;;;;;;13.35;3.30;;;;;;;;;;5003582;28;20061;-75
2022/07/14 01:00:32;;;;;;;7.53;2.00;;;;;;;;;;5004226;28;20092;-75
2022/07/14 01:02:58;;;;;;;10.15;2.15;;;;;;;;;;5005146;28;20022;-75
2022/07/14 01:05:24;;;;;;;12.13;2.40;;;;;;;;;;4986789;28;20026;-75
2022/07/14 01:07:50;;;;;;;9.20;2.42;;;;;;;;;;5002357;28;20127;-79
2022/07/14 01:10:16;;;;;;;10.43;2.58;;;;;;;;;;5004888;28;20129;-74
2022/07/14 01:12:46;;;;;;;8.77;2.65;;;;;;;;;;5004284;28;20030;-74
2022/07/14 01:15:14;;;;;;;11.23;2.42;;;;;;;;;;5004992;28;20029;-75
2022/07/14 01:17:40;;;;;;;8.43;2.13;;;;;;;;;;5003272;28;20089;-75
2022/07/14 01:20:06;;;;;;;8.90;3.05;;;;;;;;;;5005627;28;20057;-78
2022/07/14 01:22:32;;;;;;;9.10;2.00;;;;;;;;;;5001959;28;20133;-74
2022/07/14 01:24:58;;;;;;;12.50;3.17;;;;;;;;;;5002582;28;20040;-74
2022/07/14 01:27:24;;;;;;;12.60;2.22;;;;;;;;;;5004043;28;20038;-79
2022/07/14 01:29:51;;;;;;;10.52;1.88;;;;;;;;;;5005421;28;20052;-75
2022/07/14 01:32:17;;;;;;;7.72;2.13;;;;;;;;;;5007307;28;20034;-75
2022/07/14 01:34:43;;;;;;;10.88;2.20;;;;;;;;;;5007763;28;20068;-74
2022/07/14 01:37:09;;;;;;;8.45;2.70;;;;;;;;;;4989403;28;20034;-75
2022/07/14 01:39:35;;;;;;;5.88;2.05;;;;;;;;;;5006752;28;20046;-75
2022/07/14 01:42:01;;;;;;;7.47;1.75;;;;;;;;;;5006531;28;20129;-74
2022/07/14 01:44:27;;;;;;;6.93;2.25;;;;;;;;;;5005514;28;20064;-74
2022/07/14 01:46:53;;;;;;;7.70;1.83;;;;;;;;;;5003691;28;20022;-75
2022/07/14 01:49:19;;;;;;;6.43;2.22;;;;;;;;;;4990311;28;20038;-76
2022/07/14 01:51:45;;;;;;;6.72;2.28;;;;;;;;;;5005989;28;20504;-75
2022/07/14 01:54:11;;;;;;;4.03;1.80;;;;;;;;;;5005947;28;20030;-75
2022/07/14 01:56:41;;;;;;;6.40;2.05;;;;;;;;;;5007926;28;20497;-79
2022/07/14 01:59:07;;;;;;;11.30;2.13;;;;;;;;;;5004251;28;20046;-76
2022/07/14 02:01:39;;;;;;;12.98;2.50;;;;;;;;;;5008653;28;20088;-75
2022/07/14 02:04:05;;;;;;;10.88;3.35;;;;;;;;;;5006631;28;20363;-75
2022/07/14 02:06:32;;;;;;;11.38;2.38;;;;;;;;;;5007595;28;20903;-76
2022/07/14 02:08:58;;;;;;;7.80;2.00;;;;;;;;;;5007174;28;20117;-75
2022/07/14 02:14:10;;;;;;;11.40;3.55;;;;;;;;;;5007645;28;20624;-75
2022/07/14 02:16:36;;;;;;;9.07;2.47;;;;;;;;;;5006325;28;20505;-76
2022/07/14 02:19:03;;;;;;;11.50;2.92;;;;;;;;;;5003649;28;20030;-75
2022/07/14 02:21:31;;;;;;;9.48;3.97;;;;;;;;;;4987978;28;20041;-78
2022/07/14 02:23:57;;;;;;;13.18;3.92;;;;;;;;;;5004769;28;20054;-76
2022/07/14 02:26:23;;;;;;;14.10;3.15;;;;;;;;;;4988883;28;20030;-74
2022/07/14 02:28:49;;;;;;;7.22;2.65;;;;;;;;;;5004923;28;20035;-75
2022/07/14 02:31:16;;;;;;;12.18;2.53;;;;;;;;;;5006763;28;20038;-74
2022/07/14 02:33:42;;;;;;;8.52;3.10;;;;;;;;;;5007474;28;20034;-74
2022/07/14 02:36:08;;;;;;;7.88;2.63;;;;;;;;;;5004679;28;20034;-75
2022/07/14 02:38:34;;;;;;;7.63;2.63;;;;;;;;;;4988025;28;20030;-74
2022/07/14 02:41:01;;;;;;;9.15;2.72;;;;;;;;;;5007602;28;20034;-74
2022/07/14 02:43:27;;;;;;;6.22;3.15;;;;;;;;;;5004990;28;20033;-74
2022/07/14 02:45:53;;;;;;;7.82;2.20;;;;;;;;;;5004796;28;20045;-76
2022/07/14 02:48:19;;;;;;;7.13;3.03;;;;;;;;;;5002747;28;20156;-78
2022/07/14 02:50:45;;;;;;;8.95;3.22;;;;;;;;;;5007369;28;20473;-74
2022/07/14 02:53:11;;;;;;;10.60;3.13;;;;;;;;;;4988786;28;20030;-74
2022/07/14 02:55:37;;;;;;;14.20;3.80;;;;;;;;;;5006309;28;20034;-74
2022/07/14 02:58:04;;;;;;;7.80;2.95;;;;;;;;;;5007373;28;20034;-75
2022/07/14 03:00:30;;;;;;;12.35;2.92;;;;;;;;;;5003531;28;20041;-74
2022/07/14 03:02:57;;;;;;;9.10;2.53;;;;;;;;;;4989264;28;20030;-77
2022/07/14 03:05:23;;;;;;;8.57;2.78;;;;;;;;;;4986721;28;20033;-75
2022/07/14 03:07:49;;;;;;;7.10;2.40;;;;;;;;;;5005608;28;20049;-80
2022/07/14 03:10:15;;;;;;;7.15;2.40;;;;;;;;;;5002532;28;20550;-75
2022/07/14 03:12:42;;;;;;;7.97;2.47;;;;;;;;;;4987337;28;20433;-74
2022/07/14 03:15:08;;;;;;;6.85;2.50;;;;;;;;;;5005712;28;20029;-74
2022/07/14 03:17:34;;;;;;;5.18;2.13;;;;;;;;;;5006165;28;20030;-74
2022/07/14 03:20:00;;;;;;;7.65;2.40;;;;;;;;;;5001446;28;20117;-74
2022/07/14 03:22:27;;;;;;;6.57;2.10;;;;;;;;;;5006384;28;20045;-74
2022/07/14 03:24:53;;;;;;;6.25;2.30;;;;;;;;;;5005538;28;20500;-75
2022/07/14 03:27:19;;;;;;;5.45;2.22;;;;;;;;;;4988997;28;20120;-75
2022/07/14 03:29:45;;;;;;;3.95;2.10;;;;;;;;;;5002860;28;20080;-75
2022/07/14 03:32:12;;;;;;;6.35;2.45;;;;;;;;;;5004277;28;20069;-76
2022/07/14 03:34:38;;;;;;;2.92;1.80;;;;;;;;;;5004383;28;20485;-74
2022/07/14 03:37:04;;;;;;;4.03;1.88;;;;;;;;;;5005959;28;20037;-74
2022/07/14 03:39:30;;;;;;;6.65;2.63;;;;;;;;;;5002228;28;20521;-74
2022/07/14 03:41:56;;;;;;;6.13;2.10;;;;;;;;;;4990991;28;20038;-80
2022/07/14 03:44:22;;;;;;;7.30;2.05;;;;;;;;;;5005921;28;20037;-75
2022/07/14 03:46:48;;;;;;;7.68;2.60;;;;;;;;;;5005591;28;20513;-78
2022/07/14 03:49:14;;;;;;;6.18;2.22;;;;;;;;;;4985696;28;20038;-74
2022/07/14 03:51:41;;;;;;;8.80;2.15;;;;;;;;;;5005836;28;20038;-75
2022/07/14 03:54:07;;;;;;;5.47;2.42;;;;;;;;;;5006044;28;20041;-76
2022/07/14 03:56:33;;;;;;;8.43;2.70;;;;;;;;;;5004168;28;20034;-75
2022/07/14 03:58:59;;;;;;;5.00;2.90;;;;;;;;;;5004706;28;20092;-78
2022/07/14 04:01:25;;;;;;;6.18;2.42;;;;;;;;;;5005216;28;20029;-75
2022/07/14 04:03:52;;;;;;;5.25;2.50;;;;;;;;;;4987742;28;20034;-81
2022/07/14 04:06:18;;;;;;;7.32;3.47;;;;;;;;;;5001514;28;20108;-76
2022/07/14 04:08:46;;;;;;;6.90;2.47;;;;;;;;;;5005564;28;20375;-75
2022/07/14 04:11:12;;;;;;;8.38;3.10;;;;;;;;;;5005644;28;20129;-75
2022/07/14 04:13:38;;;;;;;9.63;2.35;;;;;;;;;;5001502;28;20077;-77
2022/07/14 04:16:05;;;;;;;10.30;2.55;;;;;;;;;;5001118;28;20066;-74
2022/07/14 04:18:31;;;;;;;5.60;2.90;;;;;;;;;;5002560;28;20100;-74
2022/07/14 04:20:57;;;;;;;10.20;2.55;;;;;;;;;;5002137;28;20045;-75
2022/07/14 04:23:23;;;;;;;10.30;2.58;;;;;;;;;;5004977;28;20069;-80
2022/07/14 04:25:49;;;;;;;6.97;2.53;;;;;;;;;;5003602;28;20030;-75
2022/07/14 04:28:15;;;;;;;5.50;2.63;;;;;;;;;;5004312;28;20029;-74
2022/07/14 04:30:41;;;;;;;7.43;2.00;;;;;;;;;;5003130;28;20501;-78
2022/07/14 04:33:09;;;;;;;8.10;2.72;;;;;;;;;;5004254;28;20026;-75
2022/07/14 04:35:35;;;;;;;8.00;2.80;;;;;;;;;;5003621;28;20042;-77
2022/07/14 04:38:01;;;;;;;8.88;2.30;;;;;;;;;;4984862;28;20052;-74
2022/07/14 04:40:28;;;;;;;10.90;2.22;;;;;;;;;;4987501;28;20037;-75
2022/07/14 04:42:55;;;;;;;11.65;4.13;;;;;;;;;;5004590;28;20034;-80
2022/07/14 04:45:22;;;;;;;9.90;2.45;;;;;;;;;;5003618;28;20033;-74
2022/07/14 04:47:48;;;;;;;7.15;2.35;;;;;;;;;;5004161;28;20060;-74
2022/07/14 04:52:59;;;;;;;12.95;3.03;;;;;;;;;;5003770;28;20040;-78
2022/07/14 04:55:25;;;;;;;11.70;3.25;;;;;;;;;;5003904;28;20125;-78
2022/07/14 04:57:52;;;;;;;10.82;3.38;;;;;;;;;;5003926;28;20478;-75
2022/07/14 05:00:18;;;;;;;13.95;3.55;;;;;;;;;;5004522;28;20498;-74
2022/07/14 05:02:44;;;;;;;7.22;3.30;;;;;;;;;;5004384;28;20030;-75
2022/07/14 05:05:11;;;;;;;12.63;3.40;;;;;;;;;;5003557;28;20038;-81
2022/07/14 05:07:37;;;;;;;8.25;3.00;;;;;;;;;;5003009;28;20054;-74
2022/07/14 05:10:04;;;;;;;9.25;3.25;;;;;;;;;;5002736;28;20038;-75
2022/07/14 05:12:30;;;;;;;10.13;2.20;;;;;;;;;;4985571;28;20405;-74
2022/07/14 05:14:56;;;;;;;11.40;3.03;;;;;;;;;;5005242;28;20033;-79
2022/07/14 05:17:23;;;;;;;11.65;2.53;;;;;;;;;;4986041;28;20030;-74
2022/07/14 05:19:51;;;;;;;6.53;2.53;;;;;;;;;;5004347;28;20030;-76
2022/07/14 05:22:17;;;;;;;9.10;2.85;;;;;;;;;;4985592;28;20053;-74
2022/07/14 05:24:43;;;;;;;12.10;1.83;;;;;;;;;;4987634;28;20760;-77
2022/07/14 05:27:09;;;;;;;9.32;2.17;;;;;;;;;;5003024;28;20045;-74
2022/07/14 05:29:36;;;;;;;6.78;2.63;;;;;;;;;;4987550;28;20030;-74
2022/07/14 05:32:02;;;;;;;10.80;2.22;;;;;;;;;;4986285;28;20470;-75
2022/07/14 05:34:31;;;;;;;7.15;2.20;;;;;;;;;;5002744;28;20504;-80
2022/07/14 05:36:59;;;;;;;6.35;2.05;;;;;;;;;;5000525;28;20401;-74
2022/07/14 05:39:25;;;;;;;14.40;2.47;;;;;;;;;;5005090;28;20030;-75
2022/07/14 05:41:51;;;;;;;11.38;2.40;;;;;;;;;;4986189;28;20520;-75
2022/07/14 05:44:17;;;;;;;9.20;1.77;;;;;;;;;;5002505;28;20022;-76
2022/07/14 05:46:43;;;;;;;9.23;1.65;;;;;;;;;;5002191;28;20030;-74
2022/07/14 05:49:09;;;;;;;10.35;1.50;;;;;;;;;;4985495;28;20034;-75
2022/07/14 05:51:35;;;;;;;14.48;2.33;;;;;;;;;;4997481;28;20037;-73
2022/07/14 05:54:01;;;;;;;8.25;2.00;;;;;;;;;;4999936;28;20034;-79
2022/07/14 05:56:28;;;;;;;9.45;1.67;;;;;;;;;;5001612;28;20046;-75
2022/07/14 05:58:54;;;;;;;6.63;1.63;;;;;;;;;;5002942;28;20532;-76
2022/07/14 06:01:21;;;;;;;8.40;1.73;;;;;;;;;;5003230;28;20053;-75
2022/07/14 06:03:53;;;;;;;5.18;1.70;;;;;;;;;;5002061;28;20474;-80
2022/07/14 06:06:20;;;;;;;8.23;1.60;;;;;;;;;;5000988;28;20458;-77
2022/07/14 06:08:46;;;;;;;10.05;2.22;;;;;;;;;;5002769;28;20109;-76
2022/07/14 06:11:12;;;;;;;16.67;3.60;;;;;;;;;;5004119;28;21171;-79
2022/07/14 06:13:41;;;;;;;5.85;1.90;;;;;;;;;;4986542;28;20436;-75
2022/07/14 06:16:07;;;;;;;4.75;1.38;;;;;;;;;;5006060;28;20036;-75
2022/07/14 06:18:33;;;;;;;9.80;1.67;;;;;;;;;;5008393;28;20072;-74
2022/07/14 06:20:59;;;;;;;14.90;2.03;;;;;;;;;;5002118;28;20045;-77
2022/07/14 06:23:26;;;;;;;9.60;2.25;;;;;;;;;;5006893;28;20053;-75
2022/07/14 06:25:52;;;;;;;7.57;0.93;;;;;;;;;;5004713;28;20026;-75
2022/07/14 06:28:18;;;;;;;7.05;1.63;;;;;;;;;;5005052;28;20061;-76
2022/07/14 06:30:45;;;;;;;7.80;1.40;;;;;;;;;;5004818;28;20035;-79
2022/07/14 06:33:11;;;;;;;7.90;1.50;;;;;;;;;;4988649;28;20038;-76
2022/07/14 06:35:42;;;;;;;9.70;1.50;;;;;;;;;;5006943;28;20029;-75
2022/07/14 06:38:08;;;;;;;7.67;0.90;;;;;;;;;;5006247;28;20113;-76
2022/07/14 06:40:34;;;;;;;12.02;2.88;;;;;;;;;;4999711;28;20042;-82
2022/07/14 06:43:01;;;;;;;7.28;1.73;;;;;;;;;;5003980;28;20064;-77
2022/07/14 06:45:27;;;;;;;6.55;1.10;;;;;;;;;;4981889;28;20036;-75
2022/07/14 06:47:53;;;;;;;4.45;1.05;;;;;;;;;;5004164;28;20800;-82
2022/07/14 06:50:20;;;;;;;6.63;1.10;;;;;;;;;;5001033;28;20041;-75
2022/07/14 06:52:46;;;;;;;8.40;1.30;;;;;;;;;;4989309;28;20041;-75
2022/07/14 06:55:12;;;;;;;8.52;1.27;;;;;;;;;;5005917;28;20030;-75
2022/07/14 06:57:38;;;;;;;5.20;0.68;;;;;;;;;;5003002;28;20443;-79
2022/07/14 07:00:07;;;;;;;6.63;1.35;;;;;;;;;;5007056;28;20533;-77
2022/07/14 07:02:34;;;;;;;6.75;0.90;;;;;;;;;;5002159;28;20030;-75
2022/07/14 07:07:45;;;;;;;7.00;0.88;;;;;;;;;;5005301;28;20551;-79
2022/07/14 07:10:11;;;;;;;5.88;0.68;;;;;;;;;;5005362;28;20030;-75
2022/07/14 07:12:37;;;;;;;5.28;1.02;;;;;;;;;;5005707;28;20034;-73
2022/07/14 07:15:04;;;;;;;7.35;1.33;;;;;;;;;;5005405;28;20091;-75
2022/07/14 07:17:30;;;;;;;6.00;0.73;;;;;;;;;;5007066;28;20643;-80
2022/07/14 07:19:56;;;;;;;4.63;0.80;;;;;;;;;;5006910;28;21349;-75
2022/07/14 07:22:22;;;;;;;6.72;2.20;;;;;;;;;;5004591;28;20100;-76
2022/07/14 07:24:48;;;;;;;7.15;1.17;;;;;;;;;;5000449;28;20022;-74
2022/07/14 07:27:14;;;;;;;4.15;0.80;;;;;;;;;;5004978;28;20832;-74
2022/07/14 07:29:40;;;;;;;13.90;0.65;;;;;;;;;;5003941;28;20021;-74
2022/07/14 07:32:07;;;;;;;13.05;1.00;;;;;;;;;;5005354;28;20072;-75
2022/07/14 07:34:36;;;;;;;3.88;0.70;;;;;;;;;;4986774;28;20042;-74
2022/07/14 07:37:02;;;;;;;5.85;1.17;;;;;;;;;;5006430;28;20065;-75
2022/07/14 07:39:28;;;;;;;3.20;0.60;;;;;;;;;;5002713;28;20129;-74
2022/07/14 07:41:58;;;;;;;3.03;0.77;;;;;;;;;;5005025;28;20046;-75
2022/07/14 07:44:24;;;;;;;6.55;1.05;;;;;;;;;;5002107;28;20390;-74
2022/07/14 07:46:50;;;;;;;2.75;0.63;;;;;;;;;;4986084;28;20030;-73
2022/07/14 07:49:16;;;;;;;16.17;10.93;;;;;;;;;;5006561;28;20496;-76
2022/07/14 07:51:42;;;;;;;4.95;1.70;;;;;;;;;;5007313;28;20038;-75
2022/07/14 07:54:08;;;;;;;2.28;0.98;;;;;;;;;;5006983;28;20038;-75
2022/07/14 07:56:34;;;;;;;1.85;0.35;;;;;;;;;;4987960;28;20069;-75
2022/07/14 07:59:00;;;;;;;4.10;0.50;;;;;;;;;;4974210;28;20041;-76
2022/07/14 08:01:26;;;;;;;2.90;0.70;;;;;;;;;;4999890;28;20053;-77
2022/07/14 08:03:53;;;;;;;2.15;0.60;;;;;;;;;;5000591;28;20122;-77
2022/07/14 08:06:19;;;;;;;1.73;0.65;;;;;;;;;;5004384;28;20038;-78
2022/07/14 08:08:45;;;;;;;2.00;0.40;;;;;;;;;;5003097;28;20037;-75
2022/07/14 08:11:11;;;;;;;4.43;0.80;;;;;;;;;;4988826;28;20038;-77
2022/07/14 08:13:38;;;;;;;1.77;0.60;;;;;;;;;;5003900;28;20053;-74
2022/07/14 08:16:05;;;;;;;7.93;4.07;;;;;;;;;;4988219;28;20126;-79
2022/07/14 08:18:32;;;;;;;3.72;0.60;;;;;;;;;;4987208;28;20084;-77
2022/07/14 08:20:58;;;;;;;2.25;0.50;;;;;;;;;;5003108;28;20088;-74
2022/07/14 08:23:26;;;;;;;1.98;0.85;;;;;;;;;;5002671;28;20153;-74
2022/07/14 08:25:52;;;;;;;1.45;0.40;;;;;;;;;;4970322;28;20512;-74
2022/07/14 08:28:19;;;;;;;2.78;0.60;;;;;;;;;;4985497;28;20034;-74
2022/07/14 08:30:45;;;;;;;2.10;0.40;;;;;;;;;;5002691;28;20132;-73
2022/07/14 08:33:11;;;;;;;2.83;0.50;;;;;;;;;;5005470;28;20073;-73
2022/07/14 08:35:37;;;;;;;2.75;0.52;;;;;;;;;;5001651;28;20037;-74
2022/07/14 08:38:04;;;;;;;6.50;3.50;;;;;;;;;;5002929;28;20029;-74
2022/07/14 08:40:30;;;;;;;1.55;0.43;;;;;;;;;;5010705;28;20116;-73
2022/07/14 08:42:56;;;;;;;3.53;0.50;;;;;;;;;;4990849;28;20030;-74
2022/07/14 08:45:24;;;;;;;3.35;0.70;;;;;;;;;;5004109;28;20018;-74
2022/07/14 08:47:50;;;;;;;6.60;1.30;;;;;;;;;;5007399;28;20537;-74
2022/07/14 08:50:20;;;;;;;7.07;0.55;;;;;;;;;;5015906;28;20021;-73
2022/07/14 08:52:46;;;;;;;2.00;0.65;;;;;;;;;;5007511;28;20065;-75
2022/07/14 08:55:14;;;;;;;2.15;0.40;;;;;;;;;;5001832;28;20046;-73
2022/07/14 08:57:41;;;;;;;5.68;0.60;;;;;;;;;;4990177;28;20026;-73
2022/07/14 09:00:09;;;;;;;2.45;0.40;;;;;;;;;;5008804;28;20026;-74
2022/07/14 09:02:36;;;;;;;2.15;0.40;;;;;;;;;;4993991;28;20511;-74
2022/07/14 09:05:02;;;;;;;2.90;0.63;;;;;;;;;;5002030;28;20026;-74
2022/07/14 09:07:32;;;;;;;2.35;0.47;;;;;;;;;;5000769;28;20034;-72
2022/07/14 09:10:09;;;;;;;1.77;0.55;;;;;;;;;;4984719;28;20028;-74
2022/07/14 09:12:36;;;;;;;3.70;0.52;;;;;;;;;;5000338;28;20397;-73
2022/07/14 09:17:55;;;;;;;5.57;1.35;;;;;;;;;;5005732;28;20135;-80
2022/07/14 09:20:22;;;;;;;5.65;1.02;;;;;;;;;;4997915;28;20466;-79
2022/07/14 09:22:49;;;;;;;3.67;0.85;;;;;;;;;;4988719;28;20069;-84
2022/07/14 09:25:16;;;;;;;5.45;1.23;;;;;;;;;;4989441;28;20065;-75
2022/07/14 09:27:43;;;;;;;2.25;0.50;;;;;;;;;;5011447;28;20069;-75
2022/07/14 09:30:12;;;;;;;4.13;0.40;;;;;;;;;;5011369;28;20030;-75
2022/07/14 09:32:48;;;;;;;4.40;0.40;;;;;;;;;;5009474;28;20057;-75
2022/07/14 09:35:19;;;;;;;2.25;0.52;;;;;;;;;;5009914;28;20032;-75
2022/07/14 09:37:46;;;;;;;6.95;1.33;;;;;;;;;;5009410;28;20037;-75
2022/07/14 09:40:20;;;;;;;3.58;0.40;;;;;;;;;;5009991;28;20462;-74
2022/07/14 09:42:50;;;;;;;2.70;0.30;;;;;;;;;;5004402;28;20034;-75
2022/07/14 09:45:16;;;;;;;2.45;0.75;;;;;;;;;;5005549;28;20037;-73
2022/07/14 09:48:11;;;;;;;2.55;0.43;;;;;;;;;;5004761;28;20113;-75
2022/07/14 09:50:54;;;;;;;7.32;0.52;;;;;;;;;;4989360;28;20494;-73
2022/07/14 09:53:36;;;;;;;4.85;0.57;;;;;;;;;;5003240;28;20239;-76
2022/07/14 09:56:06;;;;;;;3.70;0.70;;;;;;;;;;5014815;28;20039;-76
2022/07/14 09:58:44;;;;;;;2.70;0.47;;;;;;;;;;5013314;28;20196;-78
2022/07/14 10:01:11;;;;;;;4.65;0.73;;;;;;;;;;5011896;28;20037;-76
2022/07/14 10:03:40;;;;;;;2.20;0.63;;;;;;;;;;5008186;28;20496;-76
2022/07/14 10:06:06;;;;;;;2.15;0.50;;;;;;;;;;4986719;28;20025;-78
2022/07/14 10:08:34;;;;;;;6.88;0.77;;;;;;;;;;5005361;28;20104;-76
2022/07/14 10:11:01;;;;;;;2.50;0.25;;;;;;;;;;4987254;28;20385;-82
2022/07/14 10:13:27;;;;;;;3.30;0.57;;;;;;;;;;4984142;28;20417;-76
2022/07/14 10:15:54;;;;;;;6.13;2.40;;;;;;;;;;5007570;28;20041;-74
2022/07/14 10:18:20;;;;;;;2.22;0.80;;;;;;;;;;5013862;28;20682;-74
2022/07/14 10:20:47;;;;;;;2.15;0.35;;;;;;;;;;5013042;28;20057;-77
2022/07/14 10:23:14;;;;;;;3.63;0.60;;;;;;;;;;5005172;28;20061;-78
2022/07/14 10:25:41;;;;;;;5.47;0.57;;;;;;;;;;5003932;28;20022;-73
2022/07/14 10:28:07;;;;;;;4.68;0.70;;;;;;;;;;4986199;28;20197;-74
2022/07/14 10:30:38;;;;;;;3.03;0.45;;;;;;;;;;5005692;28;20087;-74
2022/07/14 10:33:18;;;;;;;3.97;0.83;;;;;;;;;;5006864;28;20054;-74
2022/07/14 10:35:53;;;;;;;4.53;0.75;;;;;;;;;;5005896;28;20038;-73
2022/07/14 10:38:23;;;;;;;1.52;0.60;;;;;;;;;;5011977;28;20022;-74
2022/07/14 10:40:49;;;;;;;5.80;0.55;;;;;;;;;;5008436;28;20425;-74
2022/07/14 10:43:20;;;;;;;3.03;0.45;;;;;;;;;;5008504;28;20100;-73
2022/07/14 10:45:49;;;;;;;4.13;0.77;;;;;;;;;;4986128;28;20108;-73
2022/07/14 10:48:32;;;;;;;3.50;0.80;;;;;;;;;;5012167;28;20088;-73
2022/07/14 10:51:16;;;;;;;5.10;0.40;;;;;;;;;;5001600;28;20121;-73
2022/07/14 10:54:05;;;;;;;2.83;0.50;;;;;;;;;;5013140;28;20053;-74
2022/07/14 10:56:31;;;;;;;3.15;0.50;;;;;;;;;;5011100;28;20092;-74
2022/07/14 10:59:33;;;;;;;4.43;0.77;;;;;;;;;;5011001;28;20034;-73
2022/07/14 11:02:14;;;;;;;4.57;1.77;;;;;;;;;;4930391;29;20063;-73
2022/07/14 11:07:44;;;;;;;5.07;0.57;;;;;;;;;;5002564;28;20058;-75
2022/07/14 11:10:20;;;;;;;5.57;0.80;;;;;;;;;;5015067;28;20428;-75
2022/07/14 11:13:06;;;;;;;3.20;0.77;;;;;;;;;;5010330;28;20044;-75
2022/07/14 11:15:51;;;;;;;1.17;0.43;;;;;;;;;;5010029;28;20046;-75
2022/07/14 11:18:21;;;;;;;2.08;0.47;;;;;;;;;;5011468;28;20022;-74
2022/07/14 11:20:50;;;;;;;3.80;0.40;;;;;;;;;;5009081;28;20137;-74
2022/07/14 11:23:17;;;;;;;3.33;0.30;;;;;;;;;;5008718;28;20132;-74
2022/07/14 11:25:43;;;;;;;5.40;0.73;;;;;;;;;;5007820;28;20034;-76
2022/07/14 11:28:29;;;;;;;3.80;0.35;;;;;;;;;;5011631;28;20030;-75
2022/07/14 11:31:15;;;;;;;1.30;0.45;;;;;;;;;;4991262;28;20121;-75
2022/07/14 11:36:28;;;;;;;4.47;0.88;;;;;;;;;;5011333;28;20786;-74
2022/07/14 11:39:13;;;;;;;2.88;0.50;;;;;;;;;;5009936;28;20041;-76
2022/07/14 11:41:42;;;;;;;2.58;0.60;;;;;;;;;;5005354;28;20057;-75
2022/07/14 11:44:28;;;;;;;3.10;0.45;;;;;;;;;;5011968;28;20034;-74
2022/07/14 11:46:59;;;;;;;3.13;0.50;;;;;;;;;;4996062;28;20031;-75
2022/07/14 11:49:25;;;;;;;3.38;0.47;;;;;;;;;;5005293;28;20040;-75
2022/07/14 11:51:53;;;;;;;3.67;0.70;;;;;;;;;;5000542;28;20042;-75
2022/07/14 11:54:21;;;;;;;6.32;0.50;;;;;;;;;;5002820;28;20470;-75
2022/07/14 11:56:48;;;;;;;3.13;0.50;;;;;;;;;;5002568;28;20128;-75
2022/07/14 11:59:17;;;;;;;2.20;0.30;;;;;;;;;;5009326;28;20033;-75
2022/07/14 12:01:44;;;;;;;1.98;0.52;;;;;;;;;;5011577;28;20397;-75
2022/07/14 12:04:10;;;;;;;1.95;0.40;;;;;;;;;;5008913;28;20028;-75
2022/07/14 12:06:41;;;;;;;9.35;5.75;;;;;;;;;;5002501;28;20389;-73
2022/07/14 12:09:07;;;;;;;2.57;0.70;;;;;;;;;;4989721;28;20105;-73
2022/07/14 12:11:34;;;;;;;5.10;0.57;;;;;;;;;;5003747;28;20340;-74
2022/07/14 12:14:00;;;;;;;2.45;0.50;;;;;;;;;;4987122;28;20194;-74
2022/07/14 12:16:26;;;;;;;4.13;0.47;;;;;;;;;;5007318;28;20050;-74
2022/07/14 12:18:55;;;;;;;2.35;0.60;;;;;;;;;;5004232;28;20064;-77
2022/07/14 12:21:34;;;;;;;2.28;0.40;;;;;;;;;;5001944;28;20390;-73
2022/07/14 12:24:01;;;;;;;1.48;0.32;;;;;;;;;;5009374;28;20053;-73
2022/07/14 12:26:28;;;;;;;3.40;0.98;;;;;;;;;;4994409;28;20057;-73
2022/07/14 12:28:55;;;;;;;4.05;0.60;;;;;;;;;;5010394;28;20087;-73
2022/07/14 12:31:22;;;;;;;5.50;0.70;;;;;;;;;;5002199;28;20114;-73
2022/07/14 12:33:50;;;;;;;2.83;0.50;;;;;;;;;;5009750;28;20037;-73
2022/07/14 12:36:18;;;;;;;3.20;0.45;;;;;;;;;;5011967;28;20029;-73
2022/07/14 12:38:45;;;;;;;3.65;0.60;;;;;;;;;;5011805;28;20511;-73
2022/07/14 12:41:12;;;;;;;3.60;0.52;;;;;;;;;;5008646;28;20120;-73
2022/07/14 12:43:40;;;;;;;3.85;0.30;;;;;;;;;;5011363;28;20029;-73
2022/07/14 12:46:16;;;;;;;4.38;0.50;;;;;;;;;;5010385;28;20033;-73
2022/07/14 12:48:51;;;;;;;3.58;0.68;;;;;;;;;;5011836;28;20074;-73
2022/07/14 12:51:17;;;;;;;1.23;0.30;;;;;;;;;;5009725;28;20446;-73
2022/07/14 12:53:56;;;;;;;6.18;0.50;;;;;;;;;;4993601;28;20026;-73
2022/07/14 12:56:22;;;;;;;2.40;0.35;;;;;;;;;;4998819;28;20037;-73
2022/07/14 12:58:49;;;;;;;3.25;0.43;;;;;;;;;;5009559;28;20049;-73
2022/07/14 13:01:15;;;;;;;4.00;0.75;;;;;;;;;;4994073;28;20465;-73
2022/07/14 13:03:41;;;;;;;2.85;0.40;;;;;;;;;;5010244;28;20397;-73
2022/07/14 13:06:07;;;;;;;2.53;0.40;;;;;;;;;;5006303;28;20555;-73
2022/07/14 13:08:37;;;;;;;2.42;0.50;;;;;;;;;;5011769;28;20030;-73
2022/07/14 13:11:11;;;;;;;1.98;0.40;;;;;;;;;;5005406;28;20157;-73
2022/07/14 13:13:44;;;;;;;1.85;0.43;;;;;;;;;;5009229;28;20026;-73
2022/07/14 13:16:14;;;;;;;3.15;0.30;;;;;;;;;;4991884;28;20034;-73
2022/07/14 13:18:59;;;;;;;2.50;0.40;;;;;;;;;;5011000;28;20052;-73
2022/07/14 13:21:44;;;;;;;3.15;0.40;;;;;;;;;;5011109;28;20081;-73
2022/07/14 13:24:17;;;;;;;1.80;0.40;;;;;;;;;;5012787;28;20493;-72
2022/07/14 13:26:43;;;;;;;1.23;0.40;;;;;;;;;;5013692;28;20030;-73
2022/07/14 13:29:09;;;;;;;9.93;0.40;;;;;;;;;;4996965;28;20026;-73
2022/07/14 13:31:36;;;;;;;11.45;1.20;;;;;;;;;;5013829;28;20548;-73
2022/07/14 13:34:02;;;;;;;3.83;0.40;;;;;;;;;;5015389;28;20026;-73
2022/07/14 13:36:31;;;;;;;6.13;0.47;;;;;;;;;;5014861;28;20030;-73
2022/07/14 13:39:02;;;;;;;5.45;0.63;;;;;;;;;;5013168;28;20169;-73
2022/07/14 13:41:28;;;;;;;3.38;0.40;;;;;;;;;;5014276;28;20433;-73
2022/07/14 13:43:58;;;;;;;1.60;0.30;;;;;;;;;;5013235;28;20390;-73
2022/07/14 13:46:24;;;;;;;2.20;0.47;;;;;;;;;;4987315;28;20117;-73
2022/07/14 13:48:50;;;;;;;3.25;0.45;;;;;;;;;;4978639;28;20041;-73
2022/07/14 13:54:01;;;;;;;6.38;0.40;;;;;;;;;;5006816;28;20049;-73
2022/07/14 13:56:28;;;;;;;4.28;0.60;;;;;;;;;;5009869;28;20621;-73
2022/07/14 13:58:54;;;;;;;0.77;0.30;;;;;;;;;;4997139;28;20072;-73
2022/07/14 14:01:20;;;;;;;2.78;0.40;;;;;;;;;;5012622;28;20483;-73
2022/07/14 14:03:47;;;;;;;2.10;0.40;;;;;;;;;;5015071;28;20077;-73
2022/07/14 14:06:14;;;;;;;1.55;0.38;;;;;;;;;;4994932;28;20034;-73
2022/07/14 14:08:41;;;;;;;2.55;0.30;;;;;;;;;;5013576;28;20078;-73
2022/07/14 14:11:07;;;;;;;4.00;0.60;;;;;;;;;;5014063;28;20058;-74
2022/07/14 14:13:34;;;;;;;2.53;0.45;;;;;;;;;;5014935;28;20034;-73
2022/07/14 14:16:02;;;;;;;2.45;0.40;;;;;;;;;;5009774;28;20149;-74
2022/07/14 14:18:32;;;;;;;2.15;0.40;;;;;;;;;;5010188;28;20041;-73
2022/07/14 14:20:58;;;;;;;3.85;0.70;;;;;;;;;;5010740;28;20101;-73
2022/07/14 14:23:25;;;;;;;2.53;0.60;;;;;;;;;;5014242;28;20053;-73
2022/07/14 14:25:51;;;;;;;4.25;0.60;;;;;;;;;;5014125;28;20453;-73
2022/07/14 14:28:19;;;;;;;1.75;0.47;;;;;;;;;;5014361;28;20057;-73
2022/07/14 14:30:45;;;;;;;2.60;0.60;;;;;;;;;;5000919;28;20172;-73
2022/07/14 14:33:11;;;;;;;6.32;0.57;;;;;;;;;;5011426;28;20026;-73
2022/07/14 14:35:37;;;;;;;3.65;0.50;;;;;;;;;;5013375;28;20038;-73
2022/07/14 14:38:06;;;;;;;2.63;0.30;;;;;;;;;;5003816;28;20079;-77
2022/07/14 14:40:32;;;;;;;4.43;0.35;;;;;;;;;;5011420;28;20033;-75
2022/07/14 14:42:58;;;;;;;7.28;0.93;;;;;;;;;;5003499;28;20064;-75
2022/07/14 14:45:25;;;;;;;2.05;0.70;;;;;;;;;;5000723;28;20650;-73
2022/07/14 14:47:52;;;;;;;2.50;0.30;;;;;;;;;;5008788;28;20027;-71
2022/07/14 14:50:18;;;;;;;3.72;0.70;;;;;;;;;;5010127;28;20030;-71
2022/07/14 14:52:49;;;;;;;3.20;0.68;;;;;;;;;;5003966;28;20043;-71
2022/07/14 14:55:16;;;;;;;3.17;0.50;;;;;;;;;;5013623;28;20484;-71
2022/07/14 14:57:42;;;;;;;2.42;0.47;;;;;;;;;;5012701;28;20034;-71
2022/07/14 15:00:08;;;;;;;4.05;0.70;;;;;;;;;;5008374;28;20022;-72
2022/07/14 15:02:35;;;;;;;3.97;0.98;;;;;;;;;;5006596;28;20026;-72
2022/07/14 15:05:01;;;;;;;5.95;1.10;;;;;;;;;;5009911;28;20022;-74